createdAt,value
2019-04-23T00:01:08.046Z,13.19
2019-04-23T00:03:35.701Z,13.13
2019-04-23T00:06:12.122Z,12.93
2019-04-23T00:08:42.268Z,12.93
2019-04-23T00:11:08.093Z,12.94
2019-04-23T00:13:49.878Z,12.90
2019-04-23T00:16:15.521Z,12.86
2019-04-23T00:18:43.743Z,12.86
2019-04-23T00:21:26.911Z,12.83
2019-04-23T00:29:12.769Z,12.65
2019-04-23T00:31:31.679Z,12.60
2019-04-23T00:34:26.853Z,12.55
2019-04-23T00:36:37.795Z,12.53
2019-04-23T00:39:08.354Z,12.46
2019-04-23T00:41:42.694Z,12.44
2019-04-23T00:44:16.361Z,12.44
2019-04-23T00:46:42.014Z,12.34
2019-04-23T00:49:21.117Z,12.37
2019-04-23T00:54:22.563Z,12.27
2019-04-23T00:56:52.654Z,12.22
2019-04-23T00:59:24.013Z,12.13
2019-04-23T01:04:28.249Z,12.01
2019-04-23T01:07:00.988Z,12.08
2019-04-23T01:09:33.914Z,12.03
2019-04-23T01:11:57.917Z,12.05
2019-04-23T01:14:32.532Z,11.94
2019-04-23T01:17:08.403Z,11.87
2019-04-23T01:19:37.509Z,11.80
2019-04-23T01:21:55.717Z,11.78
2019-04-23T01:24:45.839Z,11.72
2019-04-23T01:30:18.048Z,11.50
2019-04-23T01:32:43.679Z,11.52
2019-04-23T01:37:47.738Z,11.52
2019-04-23T01:40:28.902Z,11.49
2019-04-23T01:42:49.271Z,11.46
2019-04-23T01:45:26.020Z,11.39
2019-04-23T01:47:58.401Z,11.35
2019-04-23T01:50:31.176Z,11.28
2019-04-23T01:53:05.619Z,11.27
2019-04-23T01:58:21.896Z,11.19
2019-04-23T02:00:45.312Z,11.13
2019-04-23T02:03:13.524Z,11.12
2019-04-23T02:05:42.636Z,11.06
2019-04-23T02:10:51.266Z,11.07
2019-04-23T02:15:47.438Z,11.00
2019-04-23T02:18:17.978Z,10.96
2019-04-23T02:20:52.623Z,10.92
2019-04-23T02:23:39.548Z,10.93
2019-04-23T02:26:09.027Z,10.83
2019-04-23T02:28:46.065Z,10.80
2019-04-23T02:33:51.451Z,10.80
2019-04-23T02:36:19.743Z,10.82
2019-04-23T02:43:59.226Z,10.63
2019-04-23T02:46:18.088Z,10.65
2019-04-23T02:51:39.635Z,10.65
2019-04-23T03:04:10.400Z,10.43
2019-04-23T03:06:39.031Z,10.36
2019-04-23T03:11:42.095Z,10.32
2019-04-23T03:14:20.698Z,10.19
2019-04-23T03:16:53.427Z,10.17
2019-04-23T03:19:15.314Z,10.07
2019-04-23T03:24:43.609Z,10.13
2019-04-23T03:39:52.759Z,10.08
2019-04-23T03:57:18.443Z,10.06
2019-04-23T04:02:35.305Z,9.99
2019-04-23T04:04:45.169Z,9.97
2019-04-23T04:07:32.745Z,9.96
2019-04-23T04:09:51.831Z,9.95
2019-04-23T04:17:37.608Z,9.94
2019-04-23T04:19:56.305Z,9.93
2019-04-23T04:25:04.714Z,9.98
2019-04-23T04:27:35.900Z,9.93
2019-04-23T04:32:40.137Z,9.93
2019-04-23T04:40:23.353Z,9.90
2019-04-23T04:45:16.730Z,9.96
2019-04-23T04:47:42.255Z,9.93
2019-04-23T04:50:12.101Z,9.97
2019-04-23T04:52:49.026Z,9.94
2019-04-23T04:55:23.484Z,9.91
2019-04-23T04:57:58.113Z,9.94
2019-04-23T05:00:20.727Z,9.94
2019-04-23T05:07:47.662Z,10.06
2019-04-23T05:13:03.532Z,10.14
2019-04-23T05:15:17.138Z,10.19
2019-04-23T05:18:19.489Z,10.20
2019-04-23T05:23:16.547Z,10.32
2019-04-23T05:25:40.078Z,10.35
2019-04-23T05:28:14.427Z,10.37
2019-04-23T05:30:46.395Z,10.46
2019-04-23T05:33:17.336Z,10.57
2019-04-23T05:36:06.047Z,10.63
2019-04-23T05:38:31.485Z,10.67
2019-04-23T05:40:53.681Z,10.74
2019-04-23T05:43:18.848Z,10.84
2019-04-23T05:45:46.690Z,10.90
2019-04-23T05:51:01.137Z,10.98
2019-04-23T05:53:27.848Z,11.10
2019-04-23T05:55:55.272Z,11.18
2019-04-23T05:58:31.551Z,11.18
2019-04-23T06:01:35.512Z,11.29
2019-04-23T06:03:48.941Z,11.35
2019-04-23T06:06:31.645Z,11.51
2019-04-23T06:08:53.249Z,11.68
2019-04-23T06:11:34.889Z,11.79
2019-04-23T06:14:02.111Z,11.97
2019-04-23T06:16:31.461Z,12.17
2019-04-23T06:19:01.415Z,12.32
2019-04-23T06:21:34.016Z,12.43
2019-04-23T06:24:10.392Z,12.62
2019-04-23T06:26:40.104Z,12.82
2019-04-23T06:29:06.753Z,13.02
2019-04-23T06:31:41.521Z,13.26
2019-04-23T06:34:14.229Z,13.44
2019-04-23T06:36:40.239Z,13.55
2019-04-23T06:39:10.276Z,13.63
2019-04-23T06:41:44.527Z,13.71
2019-04-23T06:44:19.200Z,13.88
2019-04-23T06:46:52.170Z,13.97
2019-04-23T06:49:24.681Z,14.14
2019-04-23T06:52:07.084Z,14.25
2019-04-23T06:54:29.816Z,14.35
2019-04-23T06:56:58.713Z,14.50
2019-04-23T06:59:24.578Z,14.58
2019-04-23T07:01:59.783Z,14.67
2019-04-23T07:09:34.925Z,14.80
2019-04-23T07:11:58.665Z,14.77
2019-04-23T07:14:35.833Z,14.77
2019-04-23T07:17:03.852Z,14.83
2019-04-23T07:19:37.170Z,14.87
2019-04-23T07:22:14.571Z,14.84
2019-04-23T07:24:36.625Z,14.78
2019-04-23T07:27:10.321Z,14.71
2019-04-23T07:29:40.290Z,14.77
2019-04-23T07:32:12.638Z,14.90
2019-04-23T07:34:52.590Z,15.13
2019-04-23T07:37:15.444Z,15.34
2019-04-23T07:40:07.886Z,15.50
2019-04-23T07:42:34.385Z,15.68
2019-04-23T07:47:32.166Z,16.13
2019-04-23T07:50:26.058Z,16.26
2019-04-23T07:52:54.574Z,16.43
2019-04-23T07:55:23.704Z,16.74
2019-04-23T07:57:53.446Z,17.03
2019-04-23T08:00:26.380Z,17.19
2019-04-23T08:02:44.019Z,17.44
2019-04-23T08:07:52.490Z,17.61
2019-04-23T08:10:24.652Z,17.50
2019-04-23T08:12:53.929Z,17.60
2019-04-23T08:15:23.157Z,17.54
2019-04-23T08:17:50.514Z,17.50
2019-04-23T08:20:29.972Z,17.36
2019-04-23T08:23:04.621Z,17.28
2019-04-23T08:25:39.560Z,17.21
2019-04-23T08:28:08.021Z,17.46
2019-04-23T08:30:42.266Z,17.76
2019-04-23T08:33:24.492Z,18.00
2019-04-23T08:35:45.321Z,18.24
2019-04-23T08:38:29.517Z,18.39
2019-04-23T08:45:52.497Z,18.23
2019-04-23T08:48:27.496Z,18.41
2019-04-23T08:51:08.140Z,18.47
2019-04-23T08:53:37.578Z,18.33
2019-04-23T08:55:55.013Z,18.20
2019-04-23T08:58:30.146Z,18.36
2019-04-23T09:06:06.446Z,18.46
2019-04-23T09:11:28.917Z,18.80
2019-04-23T09:13:53.207Z,19.11
2019-04-23T09:16:09.031Z,19.30
2019-04-23T09:18:37.186Z,19.37
2019-04-23T09:21:14.176Z,19.48
2019-04-23T09:26:08.395Z,19.61
2019-04-23T09:31:41.743Z,19.12
2019-04-23T09:41:42.045Z,19.01
2019-04-23T09:44:50.074Z,19.11
2019-04-23T09:47:08.358Z,19.05
2019-04-23T09:49:42.469Z,19.13
2019-04-23T09:52:13.326Z,19.11
2019-04-23T09:54:46.501Z,19.11
2019-04-23T09:57:04.189Z,19.19
2019-04-23T09:59:47.264Z,19.35
2019-04-23T10:02:06.690Z,19.37
2019-04-23T10:04:31.949Z,19.46
2019-04-23T10:07:01.939Z,19.63
2019-04-23T10:09:20.797Z,19.99
2019-04-23T10:11:51.146Z,20.33
2019-04-23T10:14:20.945Z,20.26
2019-04-23T10:16:51.663Z,20.43
2019-04-23T10:19:22.586Z,20.54
2019-04-23T10:21:53.356Z,20.55
2019-04-23T10:24:23.481Z,20.28
2019-04-23T10:26:52.971Z,19.95
2019-04-23T10:29:25.767Z,19.82
2019-04-23T10:31:55.625Z,20.02
2019-04-23T10:34:25.445Z,19.99
2019-04-23T10:36:55.582Z,20.08
2019-04-23T10:39:30.338Z,20.27
2019-04-23T10:41:57.589Z,20.17
2019-04-23T10:44:32.992Z,20.12
2019-04-23T10:47:35.482Z,20.04
2019-04-23T10:50:05.437Z,20.01
2019-04-23T10:52:40.991Z,20.26
2019-04-23T10:55:06.043Z,20.56
2019-04-23T10:57:31.257Z,20.65
2019-04-23T11:00:13.771Z,20.73
2019-04-23T11:03:06.292Z,20.64
2019-04-23T11:05:16.231Z,20.55
2019-04-23T11:07:53.661Z,20.92
2019-04-23T11:10:15.879Z,21.11
2019-04-23T11:18:07.144Z,21.28
2019-04-23T11:22:55.465Z,21.75
2019-04-23T11:28:13.609Z,22.00
2019-04-23T11:30:41.117Z,21.87
2019-04-23T11:33:15.246Z,21.87
2019-04-23T11:36:22.190Z,21.69
2019-04-23T11:38:43.720Z,21.33
2019-04-23T11:40:44.824Z,21.11
2019-04-23T11:43:22.677Z,21.04
2019-04-23T11:51:26.710Z,21.31
2019-04-23T11:53:29.677Z,21.41
2019-04-23T11:58:28.509Z,21.28
2019-04-23T12:01:23.766Z,21.14
2019-04-23T12:03:46.793Z,21.13
2019-04-23T12:06:20.952Z,21.14
2019-04-23T12:09:13.527Z,21.11
2019-04-23T12:11:52.961Z,20.83
2019-04-23T12:17:11.193Z,20.55
2019-04-23T12:22:03.007Z,20.36
2019-04-23T12:27:02.279Z,20.50
2019-04-23T12:29:37.475Z,20.54
2019-04-23T12:35:01.468Z,20.83
2019-04-23T12:37:36.382Z,20.73
2019-04-23T12:40:15.374Z,20.71
2019-04-23T12:45:14.345Z,20.71
2019-04-23T12:57:46.919Z,20.88
2019-04-23T13:02:55.519Z,20.97
2019-04-23T13:05:21.662Z,21.07
2019-04-23T13:10:22.234Z,21.20
2019-04-23T13:15:22.732Z,21.22
2019-04-23T13:17:54.102Z,21.25
2019-04-23T13:20:28.027Z,21.24
2019-04-23T13:23:01.268Z,21.33
2019-04-23T13:25:34.848Z,21.39
2019-04-23T13:33:20.954Z,21.38
2019-04-23T13:35:53.654Z,21.42
2019-04-23T13:40:55.739Z,21.46
2019-04-23T13:43:30.168Z,21.51
2019-04-23T13:48:15.092Z,21.54
2019-04-23T13:51:01.695Z,21.59
2019-04-23T13:55:52.520Z,21.61
2019-04-23T13:58:26.781Z,21.65
2019-04-23T14:03:50.598Z,21.82
2019-04-23T14:06:16.073Z,21.97
2019-04-23T14:08:47.023Z,22.09
2019-04-23T14:13:50.994Z,22.05
2019-04-23T14:21:25.591Z,22.35
2019-04-23T14:24:03.365Z,22.34
2019-04-23T14:28:53.402Z,22.40
2019-04-23T14:31:16.793Z,22.40
2019-04-23T14:44:08.213Z,22.38
2019-04-23T14:51:58.859Z,22.38
2019-04-23T14:55:01.364Z,22.36
2019-04-23T14:57:07.888Z,22.38
2019-04-23T14:59:30.733Z,22.44
2019-04-23T15:02:04.929Z,22.47
2019-04-23T15:04:39.758Z,22.50
2019-04-23T15:09:52.794Z,22.55
2019-04-23T15:12:16.083Z,22.55
2019-04-23T15:14:52.910Z,22.56
2019-04-23T15:17:23.638Z,22.58
2019-04-23T15:22:20.192Z,22.59
2019-04-23T15:25:19.354Z,22.47
2019-04-23T15:27:02.640Z,22.59
2019-04-23T15:29:45.782Z,22.52
2019-04-23T15:32:24.191Z,22.45
2019-04-23T15:35:08.831Z,22.37
2019-04-23T15:40:00.719Z,22.29
2019-04-23T15:42:29.525Z,22.24
2019-04-23T15:45:01.345Z,22.26
2019-04-23T15:50:10.826Z,22.26
2019-04-23T15:52:48.460Z,22.25
2019-04-23T15:55:20.783Z,22.23
2019-04-23T15:58:01.366Z,22.27
2019-04-23T16:00:10.736Z,22.27
2019-04-23T16:02:13.566Z,22.27
2019-04-23T16:04:44.029Z,22.24
2019-04-23T16:07:31.826Z,22.24
2019-04-23T16:10:17.810Z,22.24
2019-04-23T16:12:51.610Z,22.30
2019-04-23T16:15:16.694Z,22.32
2019-04-23T16:17:54.541Z,22.26
2019-04-23T16:20:31.888Z,22.26
2019-04-23T16:22:52.866Z,22.25
2019-04-23T16:25:20.362Z,22.21
2019-04-23T16:28:02.208Z,22.22
2019-04-23T16:30:40.746Z,22.28
2019-04-23T16:35:56.718Z,22.23
2019-04-23T16:40:47.670Z,22.29
2019-04-23T16:45:55.387Z,22.29
2019-04-23T16:48:36.669Z,22.27
2019-04-23T16:51:10.871Z,22.30
2019-04-23T16:53:26.115Z,22.25
2019-04-23T16:56:05.193Z,22.26
2019-04-23T17:01:05.836Z,22.23
2019-04-23T17:03:55.377Z,22.26
2019-04-23T17:11:09.698Z,22.28
2019-04-23T17:13:54.142Z,22.27
2019-04-23T17:18:44.244Z,22.28
2019-04-23T17:21:16.897Z,22.27
2019-04-23T17:23:49.691Z,22.26
2019-04-23T17:26:20.603Z,22.28
2019-04-23T17:28:44.648Z,22.26
2019-04-23T17:31:35.658Z,22.27
2019-04-23T17:33:51.561Z,22.21
2019-04-23T17:39:02.809Z,22.16
2019-04-23T17:41:43.566Z,22.04
2019-04-23T17:44:18.446Z,22.02
2019-04-23T17:46:44.906Z,21.92
2019-04-23T17:51:42.629Z,21.77
2019-04-23T17:54:17.442Z,21.73
2019-04-23T17:56:55.849Z,21.67
2019-04-23T17:59:20.503Z,21.60
2019-04-23T18:01:59.501Z,21.46
2019-04-23T18:12:10.163Z,21.26
2019-04-23T18:14:18.303Z,21.15
2019-04-23T18:17:09.380Z,21.10
2019-04-23T18:19:24.681Z,21.10
2019-04-23T18:25:00.848Z,21.04
2019-04-23T18:27:27.582Z,20.97
2019-04-23T18:30:04.270Z,20.91
2019-04-23T18:32:35.948Z,20.80
2019-04-23T18:35:15.473Z,20.77
2019-04-23T18:37:35.961Z,20.69
2019-04-23T18:40:06.846Z,20.62
2019-04-23T18:42:43.792Z,20.61
2019-04-23T18:45:20.237Z,20.62
2019-04-23T18:47:45.798Z,20.52
2019-04-23T18:50:14.793Z,20.51
2019-04-23T18:55:24.485Z,20.38
2019-04-23T18:57:54.524Z,20.32
2019-04-23T19:00:24.944Z,20.34
2019-04-23T19:03:29.686Z,20.27
2019-04-23T19:10:58.019Z,20.11
2019-04-23T19:13:31.228Z,20.01
2019-04-23T19:15:53.631Z,19.97
2019-04-23T19:18:44.856Z,19.90
2019-04-23T19:21:09.076Z,19.86
2019-04-23T19:23:39.300Z,19.80
2019-04-23T19:26:07.938Z,19.76
2019-04-23T19:31:31.384Z,19.71
2019-04-23T19:34:09.276Z,19.66
2019-04-23T19:36:28.187Z,19.62
2019-04-23T19:38:57.318Z,19.59
2019-04-23T19:41:25.560Z,19.53
2019-04-23T19:44:01.412Z,19.46
2019-04-23T19:46:48.923Z,19.46
2019-04-23T19:49:05.620Z,19.47
2019-04-23T19:51:39.775Z,19.41
2019-04-23T19:54:21.989Z,19.35
2019-04-23T19:56:45.146Z,19.31
2019-04-23T19:59:02.235Z,19.27
2019-04-23T20:01:41.728Z,19.25
2019-04-23T20:04:04.167Z,19.26
2019-04-23T20:07:13.159Z,19.24
2019-04-23T20:09:30.764Z,19.28
2019-04-23T20:11:52.988Z,19.25
2019-04-23T20:14:11.773Z,19.26
2019-04-23T20:17:04.414Z,19.26
2019-04-23T20:19:23.928Z,19.26
2019-04-23T20:22:07.502Z,19.21
2019-04-23T20:24:28.480Z,19.21
2019-04-23T20:26:59.384Z,19.22
2019-04-23T20:29:45.465Z,19.20
2019-04-23T20:32:57.167Z,19.17
2019-04-23T20:34:51.853Z,19.14
2019-04-23T20:37:05.524Z,19.11
2019-04-23T20:39:47.426Z,19.09
2019-04-23T20:52:10.092Z,18.93
2019-04-23T20:57:44.081Z,18.85
2019-04-23T21:05:17.905Z,18.67
2019-04-23T21:10:27.401Z,18.63
2019-04-23T21:17:58.335Z,18.51
2019-04-23T21:23:04.750Z,18.48
2019-04-23T21:25:44.209Z,18.47
2019-04-23T21:28:08.664Z,18.40
2019-04-23T21:30:49.084Z,18.38
2019-04-23T21:33:11.941Z,18.36
2019-04-23T21:36:12.492Z,18.28
2019-04-23T21:38:48.959Z,18.24
2019-04-23T21:41:27.166Z,18.13
2019-04-23T21:43:47.295Z,18.10
2019-04-23T21:46:18.517Z,18.04
2019-04-23T21:48:56.180Z,17.97
2019-04-23T21:51:24.730Z,17.86
2019-04-23T21:53:42.149Z,17.83
2019-04-23T21:58:53.338Z,17.73
2019-04-23T22:01:28.172Z,17.73
2019-04-23T22:06:31.568Z,17.81
2019-04-23T22:09:10.999Z,17.86
2019-04-23T22:11:53.713Z,17.89
2019-04-23T22:16:38.861Z,17.86
2019-04-23T22:19:13.915Z,17.86
2019-04-23T22:21:43.443Z,17.81
2019-04-23T22:26:34.453Z,17.70
2019-04-23T22:29:16.503Z,17.66
2019-04-23T22:36:48.186Z,17.58
2019-04-23T22:39:17.691Z,17.54
2019-04-23T22:41:50.425Z,17.51
2019-04-23T22:44:26.528Z,17.53
2019-04-23T22:49:29.238Z,17.45
2019-04-23T22:52:02.613Z,17.45
2019-04-23T22:54:32.483Z,17.42
2019-04-23T22:56:54.308Z,17.37
2019-04-23T23:01:59.117Z,17.24
2019-04-23T23:04:31.385Z,17.22
2019-04-23T23:10:00.769Z,17.09
2019-04-23T23:12:07.812Z,17.04
2019-04-23T23:14:35.422Z,17.04
2019-04-23T23:17:11.544Z,17.04
2019-04-23T23:24:46.076Z,17.07
2019-04-23T23:27:30.404Z,17.01
2019-04-23T23:29:49.372Z,16.98
2019-04-23T23:32:23.269Z,16.98
2019-04-23T23:35:00.750Z,17.02
2019-04-23T23:37:39.750Z,16.98
2019-04-23T23:39:58.361Z,16.98
2019-04-23T23:47:18.327Z,16.92
2019-04-23T23:50:01.518Z,16.82
2019-04-23T23:52:34.968Z,16.74
2019-04-23T23:55:03.783Z,16.65
